sensor_id;sensor_type;location;lat;lon;timestamp;pressure;altitude;pressure_sealevel;temperature;humidity
55540;BME280;41384;51.418;7.286;2023-08-08T00:01:09;99723.63;;;16.25;80.51
55540;BME280;41384;51.418;7.286;2023-08-08T00:03:35;99728.81;;;16.14;81.45
55540;BME280;41384;51.418;7.286;2023-08-08T00:06:00;99730.66;;;16.14;80.71
55540;BME280;41384;51.418;7.286;2023-08-08T00:08:25;99718.41;;;16.13;81.31
55540;BME280;41384;51.418;7.286;2023-08-08T00:10:51;99719.16;;;16.08;80.78
55540;BME280;41384;51.418;7.286;2023-08-08T00:13:16;99712.06;;;15.97;81.06
55540;BME280;41384;51.418;7.286;2023-08-08T00:15:41;99715.25;;;16.16;80.79
55540;BME280;41384;51.418;7.286;2023-08-08T00:18:07;99707.94;;;16.06;80.37
55540;BME280;41384;51.418;7.286;2023-08-08T00:20:32;99713.56;;;16.10;80.71
55540;BME280;41384;51.418;7.286;2023-08-08T00:22:57;99710.03;;;16.04;80.34
55540;BME280;41384;51.418;7.286;2023-08-08T00:25:22;99708.44;;;16.03;80.66
55540;BME280;41384;51.418;7.286;2023-08-08T00:27:49;99715.19;;;16.11;81.13
55540;BME280;41384;51.418;7.286;2023-08-08T00:30:15;99716.16;;;16.04;81.26
55540;BME280;41384;51.418;7.286;2023-08-08T00:32:40;99714.63;;;16.09;80.97
55540;BME280;41384;51.418;7.286;2023-08-08T00:35:06;99712.13;;;16.02;80.90
55540;BME280;41384;51.418;7.286;2023-08-08T00:37:31;99708.34;;;15.98;81.48
55540;BME280;41384;51.418;7.286;2023-08-08T00:39:56;99707.03;;;16.00;80.95
55540;BME280;41384;51.418;7.286;2023-08-08T00:42:22;99701.78;;;16.05;81.12
55540;BME280;41384;51.418;7.286;2023-08-08T00:44:47;99700.66;;;16.01;80.54
55540;BME280;41384;51.418;7.286;2023-08-08T00:47:13;99693.94;;;15.94;80.80
55540;BME280;41384;51.418;7.286;2023-08-08T00:49:38;99702.47;;;15.96;80.38
55540;BME280;41384;51.418;7.286;2023-08-08T00:52:05;99703.25;;;15.96;80.48
55540;BME280;41384;51.418;7.286;2023-08-08T00:54:31;99702.69;;;15.94;81.21
55540;BME280;41384;51.418;7.286;2023-08-08T00:56:56;99699.47;;;15.92;81.21
55540;BME280;41384;51.418;7.286;2023-08-08T00:59:22;99706.91;;;15.90;80.85
55540;BME280;41384;51.418;7.286;2023-08-08T01:01:48;99693.59;;;15.90;80.30
55540;BME280;41384;51.418;7.286;2023-08-08T01:04:14;99701.81;;;15.88;80.48
55540;BME280;41384;51.418;7.286;2023-08-08T01:07:20;99692.63;;;15.96;79.97
55540;BME280;41384;51.418;7.286;2023-08-08T01:09:53;99698.91;;;15.90;79.84
55540;BME280;41384;51.418;7.286;2023-08-08T01:12:20;99697.22;;;15.84;80.52
55540;BME280;41384;51.418;7.286;2023-08-08T01:14:45;99703.81;;;15.81;80.63
55540;BME280;41384;51.418;7.286;2023-08-08T01:17:11;99704.63;;;15.82;80.92
55540;BME280;41384;51.418;7.286;2023-08-08T01:19:37;99698.75;;;15.80;81.28
55540;BME280;41384;51.418;7.286;2023-08-08T01:22:16;99693.03;;;15.88;80.54
55540;BME280;41384;51.418;7.286;2023-08-08T01:24:46;99698.91;;;15.90;80.64
55540;BME280;41384;51.418;7.286;2023-08-08T01:27:11;99689.22;;;15.84;80.38
55540;BME280;41384;51.418;7.286;2023-08-08T01:29:36;99689.31;;;15.89;80.11
55540;BME280;41384;51.418;7.286;2023-08-08T01:32:03;99687.56;;;15.95;79.97
55540;BME280;41384;51.418;7.286;2023-08-08T01:34:28;99686.66;;;15.89;79.82
55540;BME280;41384;51.418;7.286;2023-08-08T01:37:05;99684.56;;;15.91;79.73
55540;BME280;41384;51.418;7.286;2023-08-08T01:39:33;99685.84;;;15.88;79.46
55540;BME280;41384;51.418;7.286;2023-08-08T01:41:59;99687.00;;;15.93;79.56
55540;BME280;41384;51.418;7.286;2023-08-08T01:44:26;99690.56;;;15.86;79.66
55540;BME280;41384;51.418;7.286;2023-08-08T01:46:54;99691.75;;;15.90;80.12
55540;BME280;41384;51.418;7.286;2023-08-08T01:49:20;99686.91;;;15.87;80.26
55540;BME280;41384;51.418;7.286;2023-08-08T01:51:45;99687.91;;;15.86;80.26
55540;BME280;41384;51.418;7.286;2023-08-08T01:54:11;99698.69;;;15.92;79.55
55540;BME280;41384;51.418;7.286;2023-08-08T01:56:36;99687.72;;;15.88;80.33
55540;BME280;41384;51.418;7.286;2023-08-08T01:59:01;99687.22;;;15.91;79.33
55540;BME280;41384;51.418;7.286;2023-08-08T02:01:27;99684.78;;;15.89;79.63
55540;BME280;41384;51.418;7.286;2023-08-08T02:03:52;99685.50;;;15.85;79.39
55540;BME280;41384;51.418;7.286;2023-08-08T02:06:17;99676.91;;;15.78;79.97
55540;BME280;41384;51.418;7.286;2023-08-08T02:08:43;99677.53;;;15.68;80.03
55540;BME280;41384;51.418;7.286;2023-08-08T02:11:08;99673.66;;;15.75;79.96
55540;BME280;41384;51.418;7.286;2023-08-08T02:13:33;99659.25;;;15.71;81.22
55540;BME280;41384;51.418;7.286;2023-08-08T02:15:59;99663.50;;;15.72;80.57
55540;BME280;41384;51.418;7.286;2023-08-08T02:18:24;99652.19;;;15.82;79.97
55540;BME280;41384;51.418;7.286;2023-08-08T02:20:49;99648.66;;;15.76;79.76
55540;BME280;41384;51.418;7.286;2023-08-08T02:23:14;99650.22;;;15.72;79.71
55540;BME280;41384;51.418;7.286;2023-08-08T02:25:40;99636.97;;;15.78;79.79
55540;BME280;41384;51.418;7.286;2023-08-08T02:28:05;99633.81;;;15.81;79.87
55540;BME280;41384;51.418;7.286;2023-08-08T02:30:30;99639.38;;;15.79;79.84
55540;BME280;41384;51.418;7.286;2023-08-08T02:32:56;99654.50;;;15.73;80.68
55540;BME280;41384;51.418;7.286;2023-08-08T02:35:21;99662.53;;;15.79;80.15
55540;BME280;41384;51.418;7.286;2023-08-08T02:37:46;99661.00;;;15.83;79.63
55540;BME280;41384;51.418;7.286;2023-08-08T02:40:12;99659.13;;;15.83;79.70
55540;BME280;41384;51.418;7.286;2023-08-08T02:42:37;99659.63;;;15.80;80.01
55540;BME280;41384;51.418;7.286;2023-08-08T02:45:02;99647.72;;;15.66;81.50
55540;BME280;41384;51.418;7.286;2023-08-08T02:47:28;99649.88;;;15.69;81.37
55540;BME280;41384;51.418;7.286;2023-08-08T02:49:53;99636.72;;;15.79;79.76
55540;BME280;41384;51.418;7.286;2023-08-08T02:52:18;99642.38;;;15.83;80.00
55540;BME280;41384;51.418;7.286;2023-08-08T02:54:44;99646.50;;;15.73;80.28
55540;BME280;41384;51.418;7.286;2023-08-08T02:57:09;99644.81;;;15.67;81.40
55540;BME280;41384;51.418;7.286;2023-08-08T02:59:37;99643.50;;;15.70;80.77
55540;BME280;41384;51.418;7.286;2023-08-08T03:02:03;99632.44;;;15.78;81.01
55540;BME280;41384;51.418;7.286;2023-08-08T03:04:29;99640.69;;;15.76;81.15
55540;BME280;41384;51.418;7.286;2023-08-08T03:06:54;99639.50;;;15.67;81.69
55540;BME280;41384;51.418;7.286;2023-08-08T03:09:19;99635.31;;;15.71;81.77
55540;BME280;41384;51.418;7.286;2023-08-08T03:11:45;99638.19;;;15.70;81.29
55540;BME280;41384;51.418;7.286;2023-08-08T03:14:10;99632.56;;;15.66;81.95
55540;BME280;41384;51.418;7.286;2023-08-08T03:16:35;99626.50;;;15.71;81.87
55540;BME280;41384;51.418;7.286;2023-08-08T03:19:01;99629.34;;;15.64;83.25
55540;BME280;41384;51.418;7.286;2023-08-08T03:21:26;99629.09;;;15.66;83.19
55540;BME280;41384;51.418;7.286;2023-08-08T03:23:51;99626.25;;;15.72;83.33
55540;BME280;41384;51.418;7.286;2023-08-08T03:26:17;99621.09;;;15.66;84.08
55540;BME280;41384;51.418;7.286;2023-08-08T03:28:42;99615.06;;;15.70;84.68
55540;BME280;41384;51.418;7.286;2023-08-08T03:31:07;99616.59;;;15.66;85.35
55540;BME280;41384;51.418;7.286;2023-08-08T03:33:33;99621.78;;;15.56;86.42
55540;BME280;41384;51.418;7.286;2023-08-08T03:35:58;99623.97;;;15.59;87.02
55540;BME280;41384;51.418;7.286;2023-08-08T03:38:23;99625.78;;;15.58;87.70
55540;BME280;41384;51.418;7.286;2023-08-08T03:40:49;99632.84;;;15.48;89.42
55540;BME280;41384;51.418;7.286;2023-08-08T03:43:14;99637.09;;;15.49;90.08
55540;BME280;41384;51.418;7.286;2023-08-08T03:45:39;99646.78;;;15.55;90.05
55540;BME280;41384;51.418;7.286;2023-08-08T03:48:05;99637.91;;;15.49;92.79
55540;BME280;41384;51.418;7.286;2023-08-08T03:50:30;99646.03;;;15.42;93.67
55540;BME280;41384;51.418;7.286;2023-08-08T03:52:55;99650.28;;;15.43;95.11
55540;BME280;41384;51.418;7.286;2023-08-08T03:55:21;99618.31;;;15.04;100.00
55540;BME280;41384;51.418;7.286;2023-08-08T03:57:46;99613.50;;;15.18;100.00
55540;BME280;41384;51.418;7.286;2023-08-08T04:00:11;99620.03;;;15.27;100.00
55540;BME280;41384;51.418;7.286;2023-08-08T04:02:37;99622.56;;;15.39;99.08
55540;BME280;41384;51.418;7.286;2023-08-08T04:05:02;99621.53;;;15.40;99.11
55540;BME280;41384;51.418;7.286;2023-08-08T04:07:28;99614.03;;;15.37;98.92
55540;BME280;41384;51.418;7.286;2023-08-08T04:09:53;99634.34;;;15.43;97.98
55540;BME280;41384;51.418;7.286;2023-08-08T04:12:18;99616.63;;;15.32;99.30
55540;BME280;41384;51.418;7.286;2023-08-08T04:14:43;99618.72;;;15.13;100.00
55540;BME280;41384;51.418;7.286;2023-08-08T04:17:09;99614.06;;;15.20;100.00
55540;BME280;41384;51.418;7.286;2023-08-08T04:19:34;99604.84;;;15.28;100.00
55540;BME280;41384;51.418;7.286;2023-08-08T04:21:59;99603.72;;;15.24;100.00
55540;BME280;41384;51.418;7.286;2023-08-08T04:24:25;99613.09;;;15.26;100.00
55540;BME280;41384;51.418;7.286;2023-08-08T04:26:50;99624.53;;;15.27;100.00
55540;BME280;41384;51.418;7.286;2023-08-08T04:29:15;99624.34;;;15.16;100.00
55540;BME280;41384;51.418;7.286;2023-08-08T04:31:41;99616.78;;;15.08;100.00
55540;BME280;41384;51.418;7.286;2023-08-08T04:34:06;99614.69;;;15.10;100.00
55540;BME280;41384;51.418;7.286;2023-08-08T04:36:31;99614.13;;;15.08;100.00
55540;BME280;41384;51.418;7.286;2023-08-08T04:38:56;99619.53;;;15.13;100.00
55540;BME280;41384;51.418;7.286;2023-08-08T04:41:22;99612.13;;;15.15;100.00
55540;BME280;41384;51.418;7.286;2023-08-08T04:43:47;99613.72;;;15.16;100.00
55540;BME280;41384;51.418;7.286;2023-08-08T04:46:12;99606.22;;;15.13;100.00
55540;BME280;41384;51.418;7.286;2023-08-08T04:48:38;99610.75;;;15.13;100.00
55540;BME280;41384;51.418;7.286;2023-08-08T04:51:08;99608.91;;;15.13;100.00
55540;BME280;41384;51.418;7.286;2023-08-08T04:53:33;99593.75;;;14.97;100.00
55540;BME280;41384;51.418;7.286;2023-08-08T04:55:58;99592.78;;;15.03;100.00
55540;BME280;41384;51.418;7.286;2023-08-08T04:58:24;99599.56;;;15.11;100.00
55540;BME280;41384;51.418;7.286;2023-08-08T05:00:49;99592.72;;;15.15;100.00
55540;BME280;41384;51.418;7.286;2023-08-08T05:03:16;99599.25;;;15.24;100.00
55540;BME280;41384;51.418;7.286;2023-08-08T05:05:41;99595.13;;;15.16;100.00
55540;BME280;41384;51.418;7.286;2023-08-08T05:08:09;99594.63;;;15.20;100.00
55540;BME280;41384;51.418;7.286;2023-08-08T05:10:35;99591.59;;;15.11;100.00
55540;BME280;41384;51.418;7.286;2023-08-08T05:13:00;99596.72;;;15.17;100.00
55540;BME280;41384;51.418;7.286;2023-08-08T05:15:25;99590.63;;;15.17;100.00
55540;BME280;41384;51.418;7.286;2023-08-08T05:17:51;99597.78;;;15.16;100.00
55540;BME280;41384;51.418;7.286;2023-08-08T05:20:16;99594.97;;;15.23;100.00
55540;BME280;41384;51.418;7.286;2023-08-08T05:22:41;99602.69;;;15.25;100.00
55540;BME280;41384;51.418;7.286;2023-08-08T05:25:07;99600.59;;;15.27;100.00
55540;BME280;41384;51.418;7.286;2023-08-08T05:27:32;99600.09;;;15.30;100.00
55540;BME280;41384;51.418;7.286;2023-08-08T05:29:58;99598.56;;;15.34;100.00
55540;BME280;41384;51.418;7.286;2023-08-08T05:32:24;99601.06;;;15.41;100.00
55540;BME280;41384;51.418;7.286;2023-08-08T05:34:50;99596.47;;;15.36;100.00
55540;BME280;41384;51.418;7.286;2023-08-08T05:37:16;99611.16;;;15.39;100.00
55540;BME280;41384;51.418;7.286;2023-08-08T05:39:41;99607.03;;;15.48;100.00
55540;BME280;41384;51.418;7.286;2023-08-08T05:42:06;99608.50;;;15.39;100.00
55540;BME280;41384;51.418;7.286;2023-08-08T05:44:32;99607.19;;;15.41;100.00
55540;BME280;41384;51.418;7.286;2023-08-08T05:46:57;99612.59;;;15.46;100.00
55540;BME280;41384;51.418;7.286;2023-08-08T05:49:22;99610.31;;;15.38;100.00
55540;BME280;41384;51.418;7.286;2023-08-08T05:51:47;99610.91;;;15.40;100.00
55540;BME280;41384;51.418;7.286;2023-08-08T05:54:13;99610.59;;;15.37;100.00
55540;BME280;41384;51.418;7.286;2023-08-08T05:56:38;99615.50;;;15.45;100.00
55540;BME280;41384;51.418;7.286;2023-08-08T05:59:04;99616.06;;;15.47;100.00
55540;BME280;41384;51.418;7.286;2023-08-08T06:01:30;99623.53;;;15.50;100.00
55540;BME280;41384;51.418;7.286;2023-08-08T06:03:56;99610.94;;;15.63;100.00
55540;BME280;41384;51.418;7.286;2023-08-08T06:06:23;99622.91;;;15.60;100.00
55540;BME280;41384;51.418;7.286;2023-08-08T06:08:48;99620.38;;;15.70;100.00
55540;BME280;41384;51.418;7.286;2023-08-08T06:11:14;99624.25;;;15.63;100.00
55540;BME280;41384;51.418;7.286;2023-08-08T06:13:39;99629.69;;;15.51;100.00
55540;BME280;41384;51.418;7.286;2023-08-08T06:16:04;99629.13;;;15.49;100.00
55540;BME280;41384;51.418;7.286;2023-08-08T06:18:32;99630.81;;;15.55;100.00
55540;BME280;41384;51.418;7.286;2023-08-08T06:20:58;99629.84;;;15.61;100.00
55540;BME280;41384;51.418;7.286;2023-08-08T06:23:23;99633.22;;;15.56;100.00
55540;BME280;41384;51.418;7.286;2023-08-08T06:25:48;99633.53;;;15.60;100.00
55540;BME280;41384;51.418;7.286;2023-08-08T06:28:13;99629.91;;;15.66;100.00
55540;BME280;41384;51.418;7.286;2023-08-08T06:30:39;99625.66;;;15.48;100.00
55540;BME280;41384;51.418;7.286;2023-08-08T06:33:04;99630.31;;;15.58;100.00
55540;BME280;41384;51.418;7.286;2023-08-08T06:35:29;99625.88;;;15.64;100.00
55540;BME280;41384;51.418;7.286;2023-08-08T06:37:55;99620.38;;;15.70;100.00
55540;BME280;41384;51.418;7.286;2023-08-08T06:40:20;99624.09;;;15.69;100.00
55540;BME280;41384;51.418;7.286;2023-08-08T06:42:46;99626.25;;;15.72;100.00
55540;BME280;41384;51.418;7.286;2023-08-08T06:45:11;99630.13;;;15.65;100.00
55540;BME280;41384;51.418;7.286;2023-08-08T06:47:37;99635.22;;;15.66;100.00
55540;BME280;41384;51.418;7.286;2023-08-08T06:50:02;99633.00;;;15.80;100.00
55540;BME280;41384;51.418;7.286;2023-08-08T06:52:27;99635.44;;;15.82;100.00
55540;BME280;41384;51.418;7.286;2023-08-08T06:54:53;99633.28;;;15.79;100.00
55540;BME280;41384;51.418;7.286;2023-08-08T06:57:18;99633.75;;;15.75;100.00
55540;BME280;41384;51.418;7.286;2023-08-08T06:59:43;99632.94;;;15.75;100.00
55540;BME280;41384;51.418;7.286;2023-08-08T07:02:09;99622.00;;;15.71;100.00
55540;BME280;41384;51.418;7.286;2023-08-08T07:04:34;99629.91;;;15.66;100.00
55540;BME280;41384;51.418;7.286;2023-08-08T07:07:00;99633.50;;;15.77;100.00
55540;BME280;41384;51.418;7.286;2023-08-08T07:09:25;99633.34;;;15.67;100.00
55540;BME280;41384;51.418;7.286;2023-08-08T07:11:50;99631.94;;;15.59;100.00
55540;BME280;41384;51.418;7.286;2023-08-08T07:14:16;99617.16;;;15.68;100.00
55540;BME280;41384;51.418;7.286;2023-08-08T07:16:41;99625.78;;;15.75;100.00
55540;BME280;41384;51.418;7.286;2023-08-08T07:19:06;99619.63;;;15.92;100.00
55540;BME280;41384;51.418;7.286;2023-08-08T07:21:32;99619.63;;;15.92;100.00
55540;BME280;41384;51.418;7.286;2023-08-08T07:23:57;99617.53;;;15.94;100.00
55540;BME280;41384;51.418;7.286;2023-08-08T07:26:23;99615.69;;;15.95;100.00
55540;BME280;41384;51.418;7.286;2023-08-08T07:28:48;99625.09;;;15.85;100.00
55540;BME280;41384;51.418;7.286;2023-08-08T07:31:13;99617.09;;;15.85;100.00
55540;BME280;41384;51.418;7.286;2023-08-08T07:33:38;99621.56;;;15.80;100.00
55540;BME280;41384;51.418;7.286;2023-08-08T07:36:04;99613.03;;;15.95;100.00
55540;BME280;41384;51.418;7.286;2023-08-08T07:38:29;99615.63;;;16.12;100.00
55540;BME280;41384;51.418;7.286;2023-08-08T07:40:55;99620.22;;;16.16;100.00
55540;BME280;41384;51.418;7.286;2023-08-08T07:43:20;99622.31;;;16.14;100.00
55540;BME280;41384;51.418;7.286;2023-08-08T07:45:45;99613.22;;;16.10;100.00
55540;BME280;41384;51.418;7.286;2023-08-08T07:48:11;99613.22;;;16.10;100.00
55540;BME280;41384;51.418;7.286;2023-08-08T07:50:37;99618.09;;;16.18;100.00
55540;BME280;41384;51.418;7.286;2023-08-08T07:53:02;99616.72;;;16.16;100.00
55540;BME280;41384;51.418;7.286;2023-08-08T07:55:27;99611.03;;;16.07;100.00
55540;BME280;41384;51.418;7.286;2023-08-08T07:57:53;99603.91;;;16.13;100.00
55540;BME280;41384;51.418;7.286;2023-08-08T08:00:18;99605.06;;;16.22;100.00
55540;BME280;41384;51.418;7.286;2023-08-08T08:02:45;99598.25;;;16.31;100.00
55540;BME280;41384;51.418;7.286;2023-08-08T08:05:11;99599.19;;;16.20;100.00
55540;BME280;41384;51.418;7.286;2023-08-08T08:07:37;99603.34;;;16.33;100.00
55540;BME280;41384;51.418;7.286;2023-08-08T08:10:04;99602.06;;;16.36;100.00
55540;BME280;41384;51.418;7.286;2023-08-08T08:12:31;99601.47;;;16.33;100.00
55540;BME280;41384;51.418;7.286;2023-08-08T08:14:56;99596.78;;;16.41;99.07
55540;BME280;41384;51.418;7.286;2023-08-08T08:17:22;99594.41;;;16.44;100.00
55540;BME280;41384;51.418;7.286;2023-08-08T08:19:47;99596.28;;;16.44;100.00
55540;BME280;41384;51.418;7.286;2023-08-08T08:22:12;99601.25;;;16.62;100.00
55540;BME280;41384;51.418;7.286;2023-08-08T08:24:38;99591.19;;;16.70;100.00
55540;BME280;41384;51.418;7.286;2023-08-08T08:27:03;99599.09;;;16.87;99.69
55540;BME280;41384;51.418;7.286;2023-08-08T08:29:28;99598.53;;;16.85;97.06
55540;BME280;41384;51.418;7.286;2023-08-08T08:31:53;99596.72;;;16.90;96.01
55540;BME280;41384;51.418;7.286;2023-08-08T08:34:19;99595.88;;;16.85;94.60
55540;BME280;41384;51.418;7.286;2023-08-08T08:36:44;99602.81;;;16.86;95.33
55540;BME280;41384;51.418;7.286;2023-08-08T08:39:09;99590.28;;;16.86;95.14
55540;BME280;41384;51.418;7.286;2023-08-08T08:41:36;99595.97;;;16.95;96.01
55540;BME280;41384;51.418;7.286;2023-08-08T08:44:03;99592.59;;;17.05;96.40
55540;BME280;41384;51.418;7.286;2023-08-08T08:46:29;99590.50;;;17.12;95.60
55540;BME280;41384;51.418;7.286;2023-08-08T08:48:57;99592.44;;;17.17;94.39
55540;BME280;41384;51.418;7.286;2023-08-08T08:51:23;99594.06;;;17.23;93.85
55540;BME280;41384;51.418;7.286;2023-08-08T08:53:49;99586.78;;;17.13;91.21
55540;BME280;41384;51.418;7.286;2023-08-08T08:56:15;99598.78;;;17.11;87.46
55540;BME280;41384;51.418;7.286;2023-08-08T08:58:44;99598.09;;;17.26;89.18
55540;BME280;41384;51.418;7.286;2023-08-08T09:01:10;99599.50;;;17.39;88.72
55540;BME280;41384;51.418;7.286;2023-08-08T09:03:36;99588.25;;;17.31;86.23
55540;BME280;41384;51.418;7.286;2023-08-08T09:06:03;99595.22;;;17.38;85.85
55540;BME280;41384;51.418;7.286;2023-08-08T09:08:29;99593.13;;;17.45;85.45
55540;BME280;41384;51.418;7.286;2023-08-08T09:10:55;99587.53;;;17.41;84.98
55540;BME280;41384;51.418;7.286;2023-08-08T09:13:21;99590.19;;;17.41;87.34
55540;BME280;41384;51.418;7.286;2023-08-08T09:15:48;99588.91;;;17.49;84.61
55540;BME280;41384;51.418;7.286;2023-08-08T09:18:16;99594.84;;;17.61;83.38
55540;BME280;41384;51.418;7.286;2023-08-08T09:20:47;99585.03;;;17.72;83.28
55540;BME280;41384;51.418;7.286;2023-08-08T09:23:13;99589.59;;;17.77;82.53
55540;BME280;41384;51.418;7.286;2023-08-08T09:25:38;99582.34;;;17.67;83.63
55540;BME280;41384;51.418;7.286;2023-08-08T09:28:04;99584.81;;;17.79;83.93
55540;BME280;41384;51.418;7.286;2023-08-08T09:30:29;99585.38;;;17.91;82.87
55540;BME280;41384;51.418;7.286;2023-08-08T09:32:58;99579.31;;;18.01;82.08
55540;BME280;41384;51.418;7.286;2023-08-08T09:35:23;99584.66;;;18.06;80.46
55540;BME280;41384;51.418;7.286;2023-08-08T09:37:49;99577.13;;;17.98;77.31
55540;BME280;41384;51.418;7.286;2023-08-08T09:40:14;99585.72;;;18.05;77.49
55540;BME280;41384;51.418;7.286;2023-08-08T09:42:41;99586.78;;;18.04;80.21
55540;BME280;41384;51.418;7.286;2023-08-08T09:45:08;99579.06;;;18.03;76.01
55540;BME280;41384;51.418;7.286;2023-08-08T09:47:33;99581.41;;;17.99;76.50
55540;BME280;41384;51.418;7.286;2023-08-08T09:50:00;99581.19;;;18.06;74.51
55540;BME280;41384;51.418;7.286;2023-08-08T09:52:27;99580.41;;;18.11;76.59
55540;BME280;41384;51.418;7.286;2023-08-08T09:54:53;99576.16;;;18.15;77.15
55540;BME280;41384;51.418;7.286;2023-08-08T09:57:19;99578.78;;;18.09;77.08
55540;BME280;41384;51.418;7.286;2023-08-08T09:59:45;99579.84;;;18.03;75.79
55540;BME280;41384;51.418;7.286;2023-08-08T10:02:14;99579.59;;;18.05;75.49
55540;BME280;41384;51.418;7.286;2023-08-08T10:04:41;99575.38;;;18.25;75.78
55540;BME280;41384;51.418;7.286;2023-08-08T10:07:06;99581.50;;;18.15;74.41
55540;BME280;41384;51.418;7.286;2023-08-08T10:09:32;99588.06;;;17.91;76.03
55540;BME280;41384;51.418;7.286;2023-08-08T10:11:59;99584.06;;;17.99;75.44
55540;BME280;41384;51.418;7.286;2023-08-08T10:14:31;99580.63;;;17.99;74.69
55540;BME280;41384;51.418;7.286;2023-08-08T10:16:58;99586.25;;;18.02;76.27
55540;BME280;41384;51.418;7.286;2023-08-08T10:19:23;99580.13;;;18.07;75.37
55540;BME280;41384;51.418;7.286;2023-08-08T10:21:56;99586.59;;;18.21;74.94
55540;BME280;41384;51.418;7.286;2023-08-08T10:24:22;99587.94;;;18.24;75.68
55540;BME280;41384;51.418;7.286;2023-08-08T10:26:54;99584.50;;;18.39;76.60
55540;BME280;41384;51.418;7.286;2023-08-08T10:29:24;99579.75;;;18.57;75.54
55540;BME280;41384;51.418;7.286;2023-08-08T10:31:57;99576.00;;;18.73;75.56
55540;BME280;41384;51.418;7.286;2023-08-08T10:34:24;99597.94;;;18.70;74.24
55540;BME280;41384;51.418;7.286;2023-08-08T10:36:52;99592.84;;;18.79;74.49
55540;BME280;41384;51.418;7.286;2023-08-08T10:39:20;99584.56;;;18.91;73.37
55540;BME280;41384;51.418;7.286;2023-08-08T10:41:47;99586.47;;;19.01;72.56
55540;BME280;41384;51.418;7.286;2023-08-08T10:44:13;99587.50;;;18.89;72.92
55540;BME280;41384;51.418;7.286;2023-08-08T10:46:41;99588.31;;;18.74;71.76
55540;BME280;41384;51.418;7.286;2023-08-08T10:49:06;99581.38;;;18.84;71.37
55540;BME280;41384;51.418;7.286;2023-08-08T10:51:40;99586.72;;;18.78;72.45
55540;BME280;41384;51.418;7.286;2023-08-08T10:54:15;99580.81;;;18.66;72.29
55540;BME280;41384;51.418;7.286;2023-08-08T10:56:47;99585.56;;;18.48;72.55
55540;BME280;41384;51.418;7.286;2023-08-08T10:59:20;99593.56;;;18.33;73.66
55540;BME280;41384;51.418;7.286;2023-08-08T11:01:49;99593.31;;;18.29;74.11
55540;BME280;41384;51.418;7.286;2023-08-08T11:04:19;99591.16;;;18.26;73.14
55540;BME280;41384;51.418;7.286;2023-08-08T11:06:45;99591.13;;;18.16;71.72
55540;BME280;41384;51.418;7.286;2023-08-08T11:09:13;99593.81;;;18.21;73.08
55540;BME280;41384;51.418;7.286;2023-08-08T11:11:40;99587.63;;;18.10;73.64
55540;BME280;41384;51.418;7.286;2023-08-08T11:14:13;99588.72;;;18.19;73.66
55540;BME280;41384;51.418;7.286;2023-08-08T11:16:40;99588.75;;;18.35;73.08
55540;BME280;41384;51.418;7.286;2023-08-08T11:19:05;99587.44;;;18.43;73.50
55540;BME280;41384;51.418;7.286;2023-08-08T11:21:34;99590.13;;;18.43;71.22
55540;BME280;41384;51.418;7.286;2023-08-08T11:24:01;99593.34;;;18.45;71.90
55540;BME280;41384;51.418;7.286;2023-08-08T11:26:26;99594.44;;;18.64;72.41
55540;BME280;41384;51.418;7.286;2023-08-08T11:28:52;99596.56;;;18.62;72.00
55540;BME280;41384;51.418;7.286;2023-08-08T11:31:21;99589.09;;;18.59;70.06
55540;BME280;41384;51.418;7.286;2023-08-08T11:33:49;99586.94;;;18.46;70.21
55540;BME280;41384;51.418;7.286;2023-08-08T11:36:15;99591.16;;;18.26;69.98
55540;BME280;41384;51.418;7.286;2023-08-08T11:38:41;99585.81;;;18.26;70.36
55540;BME280;41384;51.418;7.286;2023-08-08T11:41:09;99590.81;;;18.07;71.10
55540;BME280;41384;51.418;7.286;2023-08-08T11:43:36;99592.91;;;18.00;72.19
55540;BME280;41384;51.418;7.286;2023-08-08T11:46:02;99598.75;;;17.91;71.47
55540;BME280;41384;51.418;7.286;2023-08-08T11:48:28;99594.72;;;17.89;73.02
55540;BME280;41384;51.418;7.286;2023-08-08T11:50:53;99587.03;;;17.98;73.20
55540;BME280;41384;51.418;7.286;2023-08-08T11:53:19;99593.81;;;18.26;73.07
55540;BME280;41384;51.418;7.286;2023-08-08T11:55:45;99587.75;;;18.62;72.91
55540;BME280;41384;51.418;7.286;2023-08-08T11:58:14;99583.22;;;18.78;71.04
55540;BME280;41384;51.418;7.286;2023-08-08T12:00:39;99583.53;;;18.97;69.13
55540;BME280;41384;51.418;7.286;2023-08-08T12:03:07;99582.19;;;19.10;70.07
55540;BME280;41384;51.418;7.286;2023-08-08T12:05:37;99580.53;;;18.93;71.30
55540;BME280;41384;51.418;7.286;2023-08-08T12:08:05;99582.44;;;18.88;72.69
55540;BME280;41384;51.418;7.286;2023-08-08T12:10:30;99579.22;;;19.27;71.12
55540;BME280;41384;51.418;7.286;2023-08-08T12:12:57;99566.66;;;19.33;70.75
55540;BME280;41384;51.418;7.286;2023-08-08T12:15:28;99569.84;;;19.30;70.59
55540;BME280;41384;51.418;7.286;2023-08-08T12:17:54;99564.72;;;19.44;71.05
55540;BME280;41384;51.418;7.286;2023-08-08T12:20:20;99558.59;;;19.38;70.22
55540;BME280;41384;51.418;7.286;2023-08-08T12:22:45;99567.97;;;19.25;70.88
55540;BME280;41384;51.418;7.286;2023-08-08T12:25:12;99574.44;;;19.08;70.99
55540;BME280;41384;51.418;7.286;2023-08-08T12:27:37;99580.06;;;19.12;71.94
55540;BME280;41384;51.418;7.286;2023-08-08T12:30:05;99565.09;;;19.06;70.27
55540;BME280;41384;51.418;7.286;2023-08-08T12:32:31;99579.19;;;19.37;69.93
55540;BME280;41384;51.418;7.286;2023-08-08T12:34:57;99569.31;;;19.33;68.98
55540;BME280;41384;51.418;7.286;2023-08-08T12:37:23;99569.81;;;19.50;68.37
55540;BME280;41384;51.418;7.286;2023-08-08T12:39:48;99573.31;;;19.40;68.90
55540;BME280;41384;51.418;7.286;2023-08-08T12:42:14;99577.59;;;19.42;67.39
55540;BME280;41384;51.418;7.286;2023-08-08T12:44:39;99576.50;;;19.53;69.54
55540;BME280;41384;51.418;7.286;2023-08-08T12:47:05;99576.53;;;19.48;68.68
55540;BME280;41384;51.418;7.286;2023-08-08T12:49:30;99574.69;;;19.22;68.74
55540;BME280;41384;51.418;7.286;2023-08-08T12:51:55;99573.53;;;19.54;68.27